createdAt,value
2024-01-19T00:02:59.803Z,97480.42
2024-01-19T00:05:46.739Z,97489.89
2024-01-19T00:08:35.625Z,97494.91
2024-01-19T00:11:22.335Z,97496.38
2024-01-19T00:14:09.301Z,97503.41
2024-01-19T00:16:57.488Z,97509.71
2024-01-19T00:19:44.311Z,97506.07
2024-01-19T00:22:30.819Z,97515.70
2024-01-19T00:25:17.331Z,97520.52
2024-01-19T00:28:05.213Z,97530.14
2024-01-19T00:30:52.230Z,97534.03
2024-01-19T00:33:39.260Z,97531.71
2024-01-19T00:36:26.258Z,97535.28
2024-01-19T00:39:13.088Z,97540.54
2024-01-19T00:41:59.985Z,97551.89
2024-01-19T00:44:46.684Z,97554.65
2024-01-19T00:47:35.387Z,97551.91
2024-01-19T00:50:22.161Z,97560.23
2024-01-19T00:53:08.874Z,97566.36
2024-01-19T00:55:55.507Z,97570.56
2024-01-19T00:58:43.663Z,97571.73
2024-01-19T01:01:30.670Z,97586.44
2024-01-19T01:04:17.908Z,97598.42
2024-01-19T01:07:04.946Z,97604.09
2024-01-19T01:09:52.112Z,97607.69
2024-01-19T01:12:40.174Z,97609.33
2024-01-19T01:15:27.322Z,97612.77
2024-01-19T01:18:14.492Z,97611.80
2024-01-19T01:21:02.941Z,97616.27
2024-01-19T01:23:49.623Z,97622.67
2024-01-19T01:26:36.259Z,97621.35
2024-01-19T01:29:24.011Z,97623.84
2024-01-19T01:32:10.825Z,97626.52
2024-01-19T01:34:57.369Z,97626.42
2024-01-19T01:37:44.298Z,97624.96
2024-01-19T01:40:31.412Z,97623.86
2024-01-19T01:43:26.521Z,97623.41
2024-01-19T01:46:13.626Z,97625.66
2024-01-19T01:49:01.032Z,97630.25
2024-01-19T01:51:48.422Z,97637.21
2024-01-19T01:54:35.164Z,97639.19
2024-01-19T01:57:24.314Z,97649.46
2024-01-19T02:00:14.859Z,97654.54
2024-01-19T02:03:03.029Z,97662.08
2024-01-19T02:05:50.102Z,97661.20
2024-01-19T02:08:37.144Z,97668.19
2024-01-19T02:11:23.873Z,97668.05
2024-01-19T02:14:11.920Z,97670.71
2024-01-19T02:16:58.389Z,97673.44
2024-01-19T02:19:45.152Z,97677.23
2024-01-19T02:25:58.722Z,97680.69
2024-01-19T02:28:45.609Z,97684.88
2024-01-19T02:31:32.633Z,97689.71
2024-01-19T02:34:19.528Z,97697.20
2024-01-19T02:37:06.360Z,97699.61
2024-01-19T02:39:52.854Z,97703.11
2024-01-19T02:42:39.657Z,97701.17
2024-01-19T02:45:26.326Z,97706.67
2024-01-19T02:48:14.358Z,97706.86
2024-01-19T02:51:01.531Z,97713.31
2024-01-19T02:53:48.762Z,97713.52
2024-01-19T02:56:35.614Z,97720.10
2024-01-19T02:59:22.245Z,97725.04
2024-01-19T03:02:09.035Z,97731.94
2024-01-19T03:04:55.938Z,97734.85
2024-01-19T03:07:42.488Z,97732.84
2024-01-19T03:10:29.057Z,97739.17
2024-01-19T03:13:16.210Z,97745.77
2024-01-19T03:16:07.640Z,97752.39
2024-01-19T03:19:01.580Z,97757.29
2024-01-19T03:21:48.900Z,97768.38
2024-01-19T03:24:37.195Z,97778.08
2024-01-19T03:27:23.847Z,97786.73
2024-01-19T03:30:11.105Z,97792.49
2024-01-19T03:32:57.729Z,97794.29
2024-01-19T03:35:45.079Z,97799.69
2024-01-19T03:38:32.464Z,97801.77
2024-01-19T03:41:18.954Z,97801.94
2024-01-19T03:44:05.798Z,97803.98
2024-01-19T03:46:52.811Z,97816.71
2024-01-19T03:49:40.691Z,97824.89
2024-01-19T03:52:27.249Z,97827.61
2024-01-19T03:55:15.817Z,97833.59
2024-01-19T03:58:05.117Z,97830.15
2024-01-19T04:00:52.549Z,97830.27
2024-01-19T04:03:39.504Z,97829.79
2024-01-19T04:06:31.126Z,97832.66
2024-01-19T04:09:18.256Z,97833.25
2024-01-19T04:12:15.872Z,97833.55
2024-01-19T04:15:02.498Z,97833.44
2024-01-19T04:17:49.466Z,97842.34
2024-01-19T04:20:36.753Z,97854.09
2024-01-19T04:23:23.589Z,97860.08
2024-01-19T04:26:10.483Z,97859.27
2024-01-19T04:28:56.938Z,97860.73
2024-01-19T04:31:43.570Z,97864.27
2024-01-19T04:34:30.317Z,97873.34
2024-01-19T04:37:16.903Z,97877.64
2024-01-19T04:40:03.784Z,97887.89
2024-01-19T04:42:50.488Z,97884.69
2024-01-19T04:45:37.085Z,97883.48
2024-01-19T04:48:24.171Z,97887.20
2024-01-19T04:51:11.228Z,97889.16
2024-01-19T04:54:00.003Z,97900.73
2024-01-19T04:56:46.827Z,97904.21
2024-01-19T04:59:33.491Z,97920.86
2024-01-19T05:02:20.549Z,97935.91
2024-01-19T05:05:07.490Z,97936.84
2024-01-19T05:07:54.355Z,97945.81
2024-01-19T05:10:41.232Z,97945.27
2024-01-19T05:13:28.083Z,97949.67
2024-01-19T05:16:14.988Z,97956.13
2024-01-19T05:19:01.930Z,97964.06
2024-01-19T05:21:48.851Z,97964.00
2024-01-19T05:24:35.432Z,97970.69
2024-01-19T05:27:22.333Z,97974.02
2024-01-19T05:30:10.259Z,97974.31
2024-01-19T05:32:57.392Z,97971.66
2024-01-19T05:35:46.978Z,97974.82
2024-01-19T05:38:34.019Z,97982.35
2024-01-19T05:41:21.760Z,97994.13
2024-01-19T05:44:08.592Z,97996.73
2024-01-19T05:46:55.864Z,98004.52
2024-01-19T05:49:42.786Z,98008.73
2024-01-19T05:52:29.806Z,98017.07
2024-01-19T05:55:16.483Z,98018.89
2024-01-19T05:58:04.660Z,98024.80
2024-01-19T06:00:51.496Z,98040.52
2024-01-19T06:03:39.346Z,98049.61
2024-01-19T06:06:27.005Z,98061.58
2024-01-19T06:09:14.322Z,98065.51
2024-01-19T06:12:01.107Z,98067.05
2024-01-19T06:14:47.707Z,98065.91
2024-01-19T06:17:34.176Z,98065.91
2024-01-19T06:20:21.693Z,98064.98
2024-01-19T06:23:09.763Z,98069.13
2024-01-19T06:25:56.617Z,98066.63
2024-01-19T06:28:43.647Z,98072.77
2024-01-19T06:31:30.357Z,98078.02
2024-01-19T06:34:17.252Z,98080.59
2024-01-19T06:37:03.958Z,98082.48
2024-01-19T06:39:50.904Z,98079.55
2024-01-19T06:42:38.606Z,98083.67
2024-01-19T06:45:25.451Z,98083.47
2024-01-19T06:48:12.784Z,98082.00
2024-01-19T06:50:59.945Z,98087.16
2024-01-19T06:53:46.899Z,98090.53
2024-01-19T06:56:34.069Z,98092.81
2024-01-19T06:59:21.354Z,98093.94
2024-01-19T07:02:08.831Z,98093.45
2024-01-19T07:04:55.376Z,98091.16
2024-01-19T07:07:45.112Z,98092.21
2024-01-19T07:10:31.852Z,98098.63
2024-01-19T07:13:18.244Z,98104.45
2024-01-19T07:16:06.678Z,98112.50
2024-01-19T07:18:53.597Z,98118.95
2024-01-19T07:21:41.552Z,98109.79
2024-01-19T07:24:31.299Z,98106.45
2024-01-19T07:27:18.186Z,98105.04
2024-01-19T07:30:06.480Z,98102.97
2024-01-19T07:33:01.670Z,98116.55
2024-01-19T07:35:54.222Z,98125.21
2024-01-19T07:38:41.214Z,98128.87
2024-01-19T07:41:28.120Z,98130.27
2024-01-19T07:44:17.668Z,98128.12
2024-01-19T07:47:06.848Z,98135.52
2024-01-19T07:49:54.031Z,98139.45
2024-01-19T07:52:41.056Z,98144.51
2024-01-19T07:55:37.022Z,98143.34
2024-01-19T07:58:26.663Z,98143.38
2024-01-19T08:01:13.535Z,98149.09
2024-01-19T08:04:00.651Z,98152.71
2024-01-19T08:06:47.843Z,98151.69
2024-01-19T08:09:35.179Z,98155.85
2024-01-19T08:12:22.070Z,98162.95
2024-01-19T08:15:09.823Z,98171.75
2024-01-19T08:17:57.462Z,98181.14
2024-01-19T08:20:44.461Z,98185.98
2024-01-19T08:23:35.191Z,98189.83
2024-01-19T08:26:22.299Z,98194.20
2024-01-19T08:29:09.199Z,98203.20
2024-01-19T08:31:56.697Z,98209.45
2024-01-19T08:34:44.606Z,98214.11
2024-01-19T08:37:31.563Z,98217.70
2024-01-19T08:40:18.852Z,98222.79
2024-01-19T08:43:05.802Z,98219.31
2024-01-19T08:45:52.649Z,98224.48
2024-01-19T08:48:44.154Z,98231.21
2024-01-19T08:51:31.204Z,98235.90
2024-01-19T08:54:18.693Z,98239.28
2024-01-19T08:57:06.275Z,98245.42
2024-01-19T08:59:53.827Z,98253.23
2024-01-19T09:02:46.918Z,98261.11
2024-01-19T09:05:41.435Z,98271.89
2024-01-19T09:08:28.629Z,98286.65
2024-01-19T09:11:15.384Z,98287.61
2024-01-19T09:14:03.657Z,98299.17
2024-01-19T09:16:50.631Z,98306.89
2024-01-19T09:19:39.953Z,98309.42
2024-01-19T09:22:28.322Z,98312.66
2024-01-19T09:25:15.853Z,98317.83
2024-01-19T09:28:03.725Z,98323.37
2024-01-19T09:30:50.993Z,98324.63
2024-01-19T09:33:37.932Z,98326.52
2024-01-19T09:36:25.081Z,98332.61
2024-01-19T09:39:12.366Z,98333.77
2024-01-19T09:42:09.015Z,98336.11
2024-01-19T09:45:06.124Z,98341.34
2024-01-19T09:48:05.896Z,98340.54
2024-01-19T09:50:56.732Z,98341.42
2024-01-19T09:53:50.064Z,98340.39
2024-01-19T09:56:38.501Z,98341.61
2024-01-19T09:59:26.334Z,98342.62
2024-01-19T10:02:16.606Z,98344.27
2024-01-19T10:05:03.882Z,98350.45
2024-01-19T10:07:56.864Z,98350.80
2024-01-19T10:10:45.037Z,98347.48
2024-01-19T10:13:31.868Z,98349.12
2024-01-19T10:16:18.531Z,98350.42
2024-01-19T10:19:06.002Z,98352.21
2024-01-19T10:21:53.741Z,98349.34
2024-01-19T10:24:40.263Z,98350.01
2024-01-19T10:27:51.692Z,98348.81
2024-01-19T10:30:38.667Z,98348.01
2024-01-19T10:33:25.464Z,98350.40
2024-01-19T10:36:12.596Z,98354.02
2024-01-19T10:39:15.911Z,98356.64
2024-01-19T10:42:08.526Z,98354.23
2024-01-19T10:44:55.421Z,98356.42
2024-01-19T10:47:44.241Z,98357.27
2024-01-19T10:50:32.249Z,98356.38
2024-01-19T10:53:19.069Z,98354.58
2024-01-19T10:56:05.727Z,98356.75
2024-01-19T10:58:53.020Z,98356.77
2024-01-19T11:01:40.339Z,98362.16
2024-01-19T11:04:27.792Z,98365.73
2024-01-19T11:07:14.940Z,98366.67
2024-01-19T11:10:01.673Z,98371.80
2024-01-19T11:12:58.161Z,98371.05
2024-01-19T11:15:52.643Z,98372.27
2024-01-19T11:18:39.928Z,98373.35
2024-01-19T11:21:27.369Z,98371.91
2024-01-19T11:24:16.876Z,98369.23
2024-01-19T11:27:24.481Z,98369.08
2024-01-19T11:31:06.524Z,98367.89
2024-01-19T11:33:54.550Z,98365.58
2024-01-19T11:36:50.549Z,98367.63
2024-01-19T11:39:45.216Z,98361.35
2024-01-19T11:42:35.036Z,98367.87
2024-01-19T11:45:28.026Z,98374.31
2024-01-19T11:48:41.414Z,98374.43
2024-01-19T11:51:33.610Z,98380.42
2024-01-19T11:54:27.240Z,98382.10
2024-01-19T11:57:22.228Z,98383.10
2024-01-19T12:00:09.673Z,98377.19
2024-01-19T12:02:57.239Z,98381.08
2024-01-19T12:05:46.137Z,98390.94
2024-01-19T12:08:34.234Z,98392.27
2024-01-19T12:11:22.372Z,98393.30
2024-01-19T12:14:14.069Z,98394.98
2024-01-19T12:17:01.057Z,98397.85
2024-01-19T12:19:53.523Z,98401.77
2024-01-19T12:22:40.254Z,98400.79
2024-01-19T12:25:27.678Z,98397.42
2024-01-19T12:28:16.803Z,98399.43
2024-01-19T12:31:04.145Z,98399.34
2024-01-19T12:33:51.136Z,98402.48
2024-01-19T12:36:37.652Z,98411.97
2024-01-19T12:39:24.581Z,98412.27
2024-01-19T12:42:11.355Z,98408.42
2024-01-19T12:45:00.458Z,98411.66
2024-01-19T12:47:48.995Z,98415.38
2024-01-19T12:50:36.225Z,98420.57
2024-01-19T12:53:23.107Z,98424.73
2024-01-19T12:56:27.309Z,98429.34
2024-01-19T12:59:17.250Z,98431.64
2024-01-19T13:02:04.402Z,98431.78
2024-01-19T13:04:51.376Z,98436.45
2024-01-19T13:07:38.344Z,98432.36
2024-01-19T13:10:25.179Z,98431.50
2024-01-19T13:13:18.421Z,98424.89
2024-01-19T13:16:07.050Z,98428.09
2024-01-19T13:19:11.794Z,98430.77
2024-01-19T13:22:05.666Z,98433.83
2024-01-19T13:24:53.944Z,98440.69
2024-01-19T13:27:40.833Z,98441.86
2024-01-19T13:30:31.035Z,98443.84
2024-01-19T13:33:18.095Z,98440.70
2024-01-19T13:36:06.081Z,98445.01
2024-01-19T13:38:52.889Z,98441.73
2024-01-19T13:41:39.734Z,98450.79
2024-01-19T13:44:27.048Z,98451.64
2024-01-19T13:47:13.805Z,98448.92
2024-01-19T13:50:02.885Z,98447.48
2024-01-19T13:52:50.282Z,98447.27
2024-01-19T13:55:37.163Z,98445.56
2024-01-19T13:58:23.899Z,98445.52
2024-01-19T14:01:11.798Z,98441.52
2024-01-19T14:03:58.777Z,98444.20
2024-01-19T14:06:46.771Z,98451.15
2024-01-19T14:09:33.861Z,98449.52
2024-01-19T14:12:20.846Z,98448.19
2024-01-19T14:15:09.120Z,98449.10
2024-01-19T14:17:56.437Z,98452.03
2024-01-19T14:20:46.849Z,98454.52
2024-01-19T14:23:34.219Z,98450.92
2024-01-19T14:26:21.703Z,98454.25
2024-01-19T14:29:11.624Z,98456.80
2024-01-19T14:32:00.152Z,98453.44
2024-01-19T14:34:53.385Z,98457.09
2024-01-19T14:37:43.527Z,98458.52
2024-01-19T14:40:30.510Z,98460.66
2024-01-19T14:43:17.356Z,98461.79
2024-01-19T14:46:04.641Z,98469.27
2024-01-19T14:48:52.224Z,98474.23
2024-01-19T14:51:39.730Z,98474.23
2024-01-19T14:54:27.944Z,98472.52
2024-01-19T14:57:14.790Z,98476.29
2024-01-19T15:00:02.644Z,98487.83
2024-01-19T15:02:50.063Z,98488.64
2024-01-19T15:05:36.879Z,98488.13
2024-01-19T15:08:23.857Z,98495.79
2024-01-19T15:11:10.858Z,98493.09
2024-01-19T15:13:57.747Z,98494.46
2024-01-19T15:16:44.853Z,98497.65
2024-01-19T15:19:31.833Z,98499.33
2024-01-19T15:22:18.366Z,98504.14
2024-01-19T15:25:08.693Z,98507.69
2024-01-19T15:27:55.189Z,98509.55
2024-01-19T15:30:44.027Z,98519.91
2024-01-19T15:33:31.883Z,98516.84
2024-01-19T15:36:20.175Z,98519.85
2024-01-19T15:39:08.177Z,98520.30
2024-01-19T15:41:55.336Z,98525.58
2024-01-19T15:44:43.287Z,98532.95
2024-01-19T15:47:32.745Z,98535.77
2024-01-19T15:50:19.719Z,98538.76
2024-01-19T15:53:09.309Z,98538.65
2024-01-19T15:55:56.339Z,98548.73
2024-01-19T15:58:45.861Z,98562.34
2024-01-19T16:01:33.460Z,98566.40
2024-01-19T16:04:20.569Z,98568.72
2024-01-19T16:07:07.612Z,98575.61
2024-01-19T16:09:54.704Z,98579.01
2024-01-19T16:12:41.384Z,98578.16
2024-01-19T16:15:28.149Z,98578.15
2024-01-19T16:18:16.491Z,98578.42
2024-01-19T16:21:04.977Z,98580.35
2024-01-19T16:23:52.136Z,98585.53
2024-01-19T16:26:44.160Z,98584.99
2024-01-19T16:29:31.463Z,98588.02
2024-01-19T16:32:18.439Z,98591.77
2024-01-19T16:35:06.157Z,98592.10
2024-01-19T16:37:56.703Z,98596.44
2024-01-19T16:40:43.715Z,98599.92
2024-01-19T16:43:30.738Z,98610.55
2024-01-19T16:46:20.659Z,98624.27
2024-01-19T16:49:07.617Z,98631.81
2024-01-19T16:51:54.070Z,98638.17
2024-01-19T16:54:43.464Z,98643.66
2024-01-19T16:57:31.107Z,98652.19
2024-01-19T17:00:19.211Z,98659.84
2024-01-19T17:03:07.049Z,98656.98
2024-01-19T17:05:54.103Z,98661.33
2024-01-19T17:08:45.275Z,98667.51
2024-01-19T17:11:32.551Z,98679.17
2024-01-19T17:14:19.119Z,98682.46
2024-01-19T17:17:06.380Z,98690.43
2024-01-19T17:19:53.375Z,98691.52
2024-01-19T17:22:40.445Z,98693.21
2024-01-19T17:25:27.346Z,98696.08
2024-01-19T17:28:15.471Z,98692.11
2024-01-19T17:31:02.254Z,98699.33
2024-01-19T17:34:01.355Z,98707.58
2024-01-19T17:36:55.996Z,98718.14
2024-01-19T17:39:45.004Z,98725.05
2024-01-19T17:42:32.081Z,98726.99
2024-01-19T17:45:22.424Z,98733.39
2024-01-19T17:48:10.895Z,98737.19
2024-01-19T17:50:57.661Z,98746.04
2024-01-19T17:53:44.441Z,98749.44
2024-01-19T17:56:32.630Z,98755.19
2024-01-19T17:59:19.791Z,98757.33
2024-01-19T18:02:08.206Z,98761.13
2024-01-19T18:04:57.867Z,98762.67
2024-01-19T18:07:44.825Z,98771.23
2024-01-19T18:10:32.011Z,98778.08
2024-01-19T18:13:19.454Z,98785.43
2024-01-19T18:16:07.814Z,98786.77
2024-01-19T18:18:56.350Z,98789.02
2024-01-19T18:21:44.325Z,98800.11
2024-01-19T18:24:32.946Z,98806.69
2024-01-19T18:27:21.357Z,98809.94
2024-01-19T18:30:09.702Z,98810.34
2024-01-19T18:32:57.047Z,98814.55
2024-01-19T18:35:44.677Z,98814.05
2024-01-19T18:38:32.573Z,98819.04
2024-01-19T18:41:19.764Z,98819.93
2024-01-19T18:44:07.029Z,98822.29
2024-01-19T18:46:54.508Z,98824.23
2024-01-19T18:49:41.702Z,98829.46
2024-01-19T18:52:28.701Z,98828.90
2024-01-19T18:55:15.928Z,98840.99
2024-01-19T18:58:06.670Z,98848.19
2024-01-19T19:00:55.289Z,98853.27
2024-01-19T19:03:43.524Z,98859.44
2024-01-19T19:06:31.082Z,98863.23
2024-01-19T19:09:17.825Z,98863.73
2024-01-19T19:12:05.931Z,98862.88
2024-01-19T19:14:56.504Z,98864.40
2024-01-19T19:17:43.299Z,98865.66
2024-01-19T19:20:31.265Z,98864.05
2024-01-19T19:23:18.129Z,98870.61
2024-01-19T19:26:16.800Z,98874.21
2024-01-19T19:29:04.119Z,98874.72
2024-01-19T19:31:52.041Z,98873.29
2024-01-19T19:34:40.248Z,98872.58
2024-01-19T19:37:27.393Z,98879.58
2024-01-19T19:40:14.050Z,98885.83
2024-01-19T19:43:02.639Z,98886.42
2024-01-19T19:45:51.765Z,98889.61
2024-01-19T19:48:40.066Z,98894.25
2024-01-19T19:51:28.386Z,98894.83
2024-01-19T19:54:15.208Z,98899.27
2024-01-19T19:57:03.281Z,98898.62
2024-01-19T19:59:51.191Z,98900.88
2024-01-19T20:02:38.042Z,98904.06
2024-01-19T20:05:26.476Z,98908.02
2024-01-19T20:08:13.272Z,98909.98
2024-01-19T20:11:00.309Z,98918.30
2024-01-19T20:13:47.243Z,98925.02
2024-01-19T20:16:35.277Z,98927.20
2024-01-19T20:19:25.692Z,98928.73
2024-01-19T20:22:12.751Z,98933.64
2024-01-19T20:25:00.681Z,98937.75
2024-01-19T20:27:47.623Z,98942.27
2024-01-19T20:30:34.351Z,98942.11
2024-01-19T20:33:21.240Z,98943.45
2024-01-19T20:36:08.611Z,98941.70
2024-01-19T20:38:55.853Z,98940.22
2024-01-19T20:41:44.496Z,98944.56
2024-01-19T20:44:31.498Z,98943.86
2024-01-19T20:47:18.293Z,98950.48
2024-01-19T20:50:05.953Z,98953.63
2024-01-19T20:52:52.488Z,98960.96
2024-01-19T20:55:40.181Z,98961.45
2024-01-19T20:58:28.621Z,98965.86
2024-01-19T21:01:15.156Z,98968.14
2024-01-19T21:04:02.811Z,98974.67
2024-01-19T21:06:49.414Z,98978.41
2024-01-19T21:09:36.303Z,98987.61
2024-01-19T21:12:27.264Z,98989.98
2024-01-19T21:15:14.750Z,98990.83
2024-01-19T21:18:01.670Z,98995.96
2024-01-19T21:20:49.126Z,98996.48
2024-01-19T21:23:36.006Z,98998.37
2024-01-19T21:26:25.410Z,98994.70
2024-01-19T21:29:12.729Z,99001.41
2024-01-19T21:31:59.899Z,98999.87
2024-01-19T21:34:47.054Z,99000.94
2024-01-19T21:37:34.021Z,99002.23
2024-01-19T21:40:21.541Z,99005.32
2024-01-19T21:43:08.720Z,99008.94
2024-01-19T21:45:56.042Z,99007.49
2024-01-19T21:48:42.936Z,99009.70
2024-01-19T21:51:30.283Z,99014.70
2024-01-19T21:54:17.776Z,99014.67
2024-01-19T21:57:07.565Z,99019.79
2024-01-19T21:59:57.541Z,99022.05
2024-01-19T22:02:47.964Z,99027.70
2024-01-19T22:05:35.645Z,99025.31
2024-01-19T22:08:25.110Z,99030.94
2024-01-19T22:11:14.334Z,99035.98
2024-01-19T22:14:01.354Z,99043.79
2024-01-19T22:16:48.020Z,99042.41
2024-01-19T22:19:35.109Z,99041.16
2024-01-19T22:22:21.809Z,99043.86
2024-01-19T22:25:08.563Z,99041.83
2024-01-19T22:27:55.427Z,99040.16
2024-01-19T22:30:42.833Z,99044.66
2024-01-19T22:33:30.517Z,99047.41
2024-01-19T22:36:19.600Z,99057.59
2024-01-19T22:39:07.598Z,99056.83
2024-01-19T22:42:09.711Z,99061.44
2024-01-19T22:44:56.746Z,99065.67
2024-01-19T22:47:43.766Z,99062.91
2024-01-19T22:50:30.354Z,99063.86
2024-01-19T22:53:17.363Z,99068.03
2024-01-19T22:56:04.855Z,99070.89
2024-01-19T22:58:52.083Z,99072.09
2024-01-19T23:01:40.738Z,99072.90
2024-01-19T23:04:27.368Z,99072.52
2024-01-19T23:07:14.387Z,99070.15
2024-01-19T23:10:01.296Z,99069.47
2024-01-19T23:12:49.472Z,99075.03
2024-01-19T23:15:36.184Z,99072.30
2024-01-19T23:18:23.120Z,99076.31
2024-01-19T23:21:10.828Z,99084.86
2024-01-19T23:23:58.000Z,99082.11
2024-01-19T23:26:45.383Z,99086.52
2024-01-19T23:29:32.602Z,99089.20
2024-01-19T23:32:19.501Z,99093.93
2024-01-19T23:35:08.426Z,99095.30
2024-01-19T23:37:55.883Z,99094.95
2024-01-19T23:40:42.992Z,99094.42
2024-01-19T23:43:30.336Z,99095.79
2024-01-19T23:46:17.545Z,99093.20
2024-01-19T23:49:04.209Z,99093.86
2024-01-19T23:51:53.474Z,99095.84
2024-01-19T23:54:40.427Z,99094.05
2024-01-19T23:57:27.264Z,99100.00
